Zavodoukovsk, Russia
Current Conditions -  °F | °C
As of 4:00 PM on Friday 24 Oct 2014 (Local Time) from USTR Reporting Station
Snow Showers Snow Showers  
Wind Chill:   Ceiling: Unl
Heat Index:   Visibility: 4mi
Dew Point:   Wind: 4mph
Humidity: 92%   Direction: 220°SW
Pressure: 29.68"   Gusts: NA
Location:  56.51°N, 66.54°E
Report Text: USTR 241100Z 22002MPS 6000 -SHSN SCT019CB M13/M14 Q1005 TEMPO2000 SHSN BKN007 RMK QFE745/0994 12350050 03////99
Loading
Personal Weather Stations






























Interactive Weather Map
Tropical Storm Tracking
New forecast layout! Learn more

10-Day Weather Forecast

Advertisements
Track Severe Weather on mobile